»·PEaware :: N948BT KOTH-KMFR

N948BT :: KOTH-KMFR

FLIGHT INFORMATION

Flight Status: Arrived
Operator: Privately registered:
United States
More flights under this callsign
Pilot: Tony D. (5369)
Aircraft: CESSNA 172 SKYHAWK
(C172)
More flights by this aircraft type
Origin: KOTH North Bend Mun
United States
Destination: KMFR Rogue Valley Intl-Medford
United States
More flights between these airports :: More routes between these airports
Route: OTH6 DEROY V287 OED
File this flight plan on PilotEdge
Remarks:
Altitude:
(Current/Filed)
9,000ft
Speed:
(Current/Filed)
120kts
Departed: 10-Sep-18 09:18 AM
Arrived: 10-Sep-18 10:13 AM
Distance/Time
Traveled:
87nm/0:54
Distance/Time
To Go:
Arrived

Flight Plot

Page will automatically refresh every two minutes.

Flight plan parsing failed; only flown route is shown


Map Options




Map Legend


Flown Route
Filed Route
Departure Airport
Arrival Airport
Navaid (VOR, NDB)
Fix

Horizontal Profiles

Position Reports

Time Latitude Longitude Heading Altitude Ground
Speed
10-Sep-18 08:57 43.414883 -124.244622 330 7ft 0kts
10-Sep-18 08:58 43.414883 -124.244622 330 7ft 0kts
10-Sep-18 08:59 43.414883 -124.244622 330 7ft 0kts
10-Sep-18 09:00 43.414883 -124.244622 330 7ft 0kts
10-Sep-18 09:01 43.414883 -124.244622 330 7ft 0kts
10-Sep-18 09:02 43.414883 -124.244622 330 7ft 0kts
10-Sep-18 09:03 43.414883 -124.244622 330 7ft 0kts
10-Sep-18 09:04 43.414883 -124.244622 330 7ft 0kts
10-Sep-18 09:05 43.414883 -124.244622 330 7ft 0kts
10-Sep-18 09:06 43.414883 -124.244622 330 7ft 0kts
10-Sep-18 09:07 43.414883 -124.244622 330 7ft 0kts
10-Sep-18 09:08 43.414883 -124.244622 330 7ft 0kts
10-Sep-18 09:09 43.414883 -124.244622 330 7ft 0kts
10-Sep-18 09:10 43.414883 -124.244622 330 7ft 0kts
10-Sep-18 09:11 43.414883 -124.244622 330 7ft 0kts
10-Sep-18 09:12 43.414883 -124.244622 330 7ft 0kts
10-Sep-18 09:13 43.414883 -124.244622 330 7ft 0kts
10-Sep-18 09:14 43.414883 -124.244622 330 7ft 0kts
10-Sep-18 09:15 43.414883 -124.244622 330 7ft 0kts
10-Sep-18 09:16 43.414964 -124.244660 356 7ft 4kts
10-Sep-18 09:17 43.413513 -124.242551 150 7ft 8kts
10-Sep-18 09:18 43.410899 -124.240496 150 7ft 13kts
10-Sep-18 09:19 43.408959 -124.238783 104 7ft 0kts
10-Sep-18 09:20 43.413270 -124.241095 330 7ft 76kts
10-Sep-18 09:21 43.430059 -124.260195 264 471ft 76kts
10-Sep-18 09:22 43.420274 -124.285279 237 966ft 73kts
10-Sep-18 09:23 43.411854 -124.312318 269 1414ft 85kts
10-Sep-18 09:24 43.421824 -124.330743 27 1767ft 70kts
10-Sep-18 09:25 43.424740 -124.304063 99 2187ft 84kts
10-Sep-18 09:26 43.421018 -124.272414 96 2584ft 82kts
10-Sep-18 09:27 43.418815 -124.241292 89 2981ft 80kts
10-Sep-18 09:28 43.417387 -124.209443 88 3488ft 86kts
10-Sep-18 09:29 43.415711 -124.176522 86 3986ft 85kts
10-Sep-18 09:30 43.401811 -124.150303 132 4473ft 89kts
10-Sep-18 09:31 43.384327 -124.126152 130 4969ft 90kts
10-Sep-18 09:32 43.366801 -124.101873 129 5458ft 90kts
10-Sep-18 09:33 43.348711 -124.078392 134 5902ft 95kts
10-Sep-18 09:34 43.329022 -124.051955 134 6312ft 102kts
10-Sep-18 09:35 43.309475 -124.025375 134 6696ft 98kts
10-Sep-18 09:36 43.290461 -123.999447 135 7097ft 102kts
10-Sep-18 09:37 43.270128 -123.971785 136 7501ft 105kts
10-Sep-18 09:38 43.249494 -123.943734 137 7899ft 106kts
10-Sep-18 09:39 43.228903 -123.915760 138 8294ft 105kts
10-Sep-18 09:40 43.208315 -123.887819 140 8693ft 104kts
10-Sep-18 09:41 43.188075 -123.860412 141 9004ft 111kts
10-Sep-18 09:42 43.164083 -123.828025 140 9000ft 128kts
10-Sep-18 09:43 43.138310 -123.793155 139 8993ft 132kts
10-Sep-18 09:44 43.112163 -123.757826 140 8989ft 132kts
10-Sep-18 09:45 43.085462 -123.723083 141 8986ft 132kts
10-Sep-18 09:46 43.058864 -123.688207 140 8985ft 132kts
10-Sep-18 09:47 43.032448 -123.652920 139 8984ft 132kts
10-Sep-18 09:48 43.006129 -123.617650 139 8984ft 132kts
10-Sep-18 09:49 42.979942 -123.582552 139 8984ft 131kts
10-Sep-18 09:50 42.953847 -123.547611 138 8984ft 131kts
10-Sep-18 09:51 42.928206 -123.513315 138 8983ft 126kts
10-Sep-18 09:52 42.903547 -123.480378 138 8984ft 123kts
10-Sep-18 09:53 42.879244 -123.447957 137 8982ft 121kts
10-Sep-18 09:54 42.855168 -123.415864 138 8982ft 120kts
10-Sep-18 09:55 42.831152 -123.383899 138 8982ft 120kts
10-Sep-18 09:56 42.807264 -123.352145 138 8982ft 120kts
10-Sep-18 09:57 42.783346 -123.320379 138 8978ft 119kts
10-Sep-18 09:58 42.759527 -123.288602 137 8978ft 119kts
10-Sep-18 09:59 42.736568 -123.255814 137 8976ft 119kts
10-Sep-18 10:00 42.712936 -123.223997 138 8975ft 119kts
10-Sep-18 10:01 42.689113 -123.192434 138 8973ft 119kts
10-Sep-18 10:02 42.665226 -123.160848 138 8972ft 120kts
10-Sep-18 10:03 42.642182 -123.130462 138 8471ft 110kts
10-Sep-18 10:04 42.620611 -123.102013 137 7970ft 110kts
10-Sep-18 10:05 42.597974 -123.072181 136 7395ft 117kts
10-Sep-18 10:06 42.574701 -123.042701 140 6691ft 113kts
10-Sep-18 10:07 42.551912 -123.017203 140 6497ft 100kts
10-Sep-18 10:08 42.528369 -122.991111 140 6198ft 122kts
10-Sep-18 10:09 42.502306 -122.962783 152 5984ft 100kts
10-Sep-18 10:10 42.476428 -122.947807 152 5390ft 106kts
10-Sep-18 10:11 42.451287 -122.929683 140 4561ft 97kts
10-Sep-18 10:12 42.426697 -122.903431 150 2654ft 123kts
10-Sep-18 10:13 42.401957 -122.887328 159 1738ft 81kts
10-Sep-18 10:14 42.382218 -122.877098 158 1319ft 64kts
10-Sep-18 10:15 42.376127 -122.875062 271 1318ft 9kts
10-Sep-18 10:16 42.375767 -122.875295 177 1318ft 8kts
10-Sep-18 10:17 42.372308 -122.875088 157 1318ft 8kts
10-Sep-18 10:18 42.371150 -122.876133 292 1318ft 0kts
10-Sep-18 10:19 42.371150 -122.876133 292 1318ft 0kts
10-Sep-18 10:20 42.371150 -122.876133 292 1318ft 0kts
10-Sep-18 10:21 42.371150 -122.876133 292 1318ft 0kts

Navigation Log

Ident Type
Flight plan parsing failed, navigation log unavailable